Time;durP1;ratioP1;P1;durP2;ratioP2;P2;SDS_P1;SDS_P2;PMS_P1;PMS_P2;Temp;Humidity;BMP_temperature;BMP_pressure;BME280_temperature;BME280_humidity;BME280_pressure;Samples;Min_cycle;Max_cycle;Signal;HPM_P1;HPM_P2
2022/09/04 00:00:10;;;;;;;13.43;10.60;;;18.90;77.40;;;;;;5075652;28;20420;-13
2022/09/04 00:03:00;;;;;;;13.63;10.82;;;18.90;78.20;;;;;;5075816;28;20072;-12
2022/09/04 00:05:52;;;;;;;12.93;10.13;;;18.90;77.90;;;;;;5076126;28;20029;-12
2022/09/04 00:08:39;;;;;;;9.43;7.97;;;18.90;78.10;;;;;;5076089;28;20096;-13
2022/09/04 00:11:33;;;;;;;12.23;9.55;;;18.90;78.10;;;;;;5075698;28;20036;-13
2022/09/04 00:14:13;;;;;;;13.77;11.55;;;18.90;78.10;;;;;;5075977;28;20031;-12
2022/09/04 00:16:43;;;;;;;10.75;9.13;;;18.80;78.20;;;;;;5075926;28;20024;-12
2022/09/04 00:19:35;;;;;;;10.35;8.15;;;18.90;78.20;;;;;;5075707;28;20074;-11
2022/09/04 00:22:14;;;;;;;11.35;9.52;;;18.80;78.20;;;;;;5075287;28;20071;-12
2022/09/04 00:24:47;;;;;;;9.82;8.43;;;18.90;78.00;;;;;;5075796;28;20024;-12
2022/09/04 00:27:42;;;;;;;11.60;8.80;;;18.80;78.40;;;;;;5075401;28;20060;-12
2022/09/04 00:30:19;;;;;;;11.93;9.85;;;18.90;78.30;;;;;;5075321;28;20488;-12
2022/09/04 00:33:04;;;;;;;11.15;9.65;;;18.80;78.20;;;;;;5075688;28;20518;-13
2022/09/04 00:35:43;;;;;;;10.63;9.43;;;18.90;78.30;;;;;;5074012;28;20029;-13
2022/09/04 00:38:42;;;;;;;11.23;9.38;;;18.80;78.40;;;;;;5075212;28;20472;-11
2022/09/04 00:41:31;;;;;;;10.70;8.10;;;18.90;78.50;;;;;;5075135;28;20066;-12
2022/09/04 00:44:34;;;;;;;12.20;10.68;;;18.90;78.30;;;;;;5075433;28;20119;-12
2022/09/04 00:47:47;;;;;;;10.88;9.05;;;18.80;78.70;;;;;;5075238;28;20480;-11
2022/09/04 00:50:19;;;;;;;11.05;9.23;;;18.80;78.60;;;;;;5072740;28;20419;-11
2022/09/04 00:53:03;;;;;;;12.15;10.48;;;18.70;78.90;;;;;;5072943;28;20484;-11
2022/09/04 00:55:34;;;;;;;;;;;18.70;79.10;;;;;;5073219;28;20033;-12
2022/09/04 00:58:26;;;;;;;17.35;12.63;;;18.60;79.50;;;;;;5072762;28;19950;-12
2022/09/04 01:00:56;;;;;;;11.10;9.13;;;18.70;78.90;;;;;;5072336;28;20543;-13
2022/09/04 01:03:39;;;;;;;12.13;8.68;;;18.60;78.90;;;;;;5073161;28;20060;-13
2022/09/04 01:06:10;;;;;;;8.07;6.85;;;18.60;78.90;;;;;;5072975;28;20036;-12
2022/09/04 01:09:15;;;;;;;10.38;9.02;;;18.60;78.80;;;;;;5072724;28;20135;-11
2022/09/04 01:11:42;;;;;;;;;;;18.60;79.00;;;;;;5059071;28;20033;-12
2022/09/04 01:14:34;;;;;;;10.18;8.57;;;18.60;80.10;;;;;;5072473;28;20283;-12
2022/09/04 01:17:41;;;;;;;10.73;8.98;;;18.50;79.30;;;;;;5072153;28;20120;-12
2022/09/04 01:20:36;;;;;;;12.65;9.40;;;18.50;79.10;;;;;;4992958;28;20030;-12
2022/09/04 01:23:25;;;;;;;12.02;9.90;;;18.60;79.20;;;;;;4977850;28;20512;-12
2022/09/04 01:26:14;;;;;;;11.90;9.88;;;18.60;79.40;;;;;;4993713;28;20490;-12
2022/09/04 01:28:46;;;;;;;11.30;10.07;;;18.60;79.30;;;;;;5012768;28;20113;-13
2022/09/04 01:31:32;;;;;;;11.43;10.07;;;18.60;79.30;;;;;;5012438;28;20429;-11
2022/09/04 01:34:04;;;;;;;15.95;12.25;;;18.50;79.60;;;;;;5012451;28;20177;-12
2022/09/04 01:36:48;;;;;;;13.43;11.55;;;18.50;79.90;;;;;;5012388;28;20105;-12
2022/09/04 01:39:19;;;;;;;14.00;11.65;;;18.50;80.10;;;;;;5012659;28;20045;-13
2022/09/04 01:41:45;;;;;;;15.02;13.32;;;18.40;80.50;;;;;;5011804;28;20145;-12
2022/09/04 01:44:12;;;;;;;21.60;17.13;;;18.40;80.80;;;;;;5012237;28;20042;-13
2022/09/04 01:46:54;;;;;;;15.40;13.75;;;18.40;80.70;;;;;;5012198;28;20057;-12
2022/09/04 01:49:41;;;;;;;12.43;10.98;;;18.40;80.60;;;;;;5012195;28;20026;-12
2022/09/04 01:52:32;;;;;;;14.57;11.27;;;18.30;80.70;;;;;;5073759;28;20392;-13
2022/09/04 01:55:12;;;;;;;14.63;12.82;;;18.20;80.90;;;;;;5073843;28;20029;-12
2022/09/04 01:57:38;;;;;;;12.13;10.75;;;18.30;81.20;;;;;;5073704;28;20487;-12
2022/09/04 02:00:22;;;;;;;13.35;11.77;;;18.30;81.00;;;;;;5073746;28;20045;-12
2022/09/04 02:02:54;;;;;;;19.67;14.20;;;18.20;81.40;;;;;;5073388;28;20040;-12
2022/09/04 02:05:20;;;;;;;15.77;11.93;;;18.20;81.70;;;;;;5073603;28;20073;-12
2022/09/04 02:07:59;;;;;;;16.05;12.93;;;18.20;82.30;;;;;;5073728;28;20029;-12
2022/09/04 02:10:49;;;;;;;12.43;10.80;;;18.20;82.10;;;;;;5073748;28;20074;-12
2022/09/04 02:13:36;;;;;;;12.32;9.43;;;18.20;81.80;;;;;;5073892;28;20033;-12
2022/09/04 02:17:02;;;;;;;14.95;12.60;;;18.10;81.60;;;;;;5073678;28;20052;-13
2022/09/04 02:19:31;;;;;;;14.70;11.88;;;18.10;82.60;;;;;;5071490;28;20036;-12
2022/09/04 02:22:37;;;;;;;12.02;10.20;;;18.10;82.40;;;;;;5071227;28;20554;-12
2022/09/04 02:25:15;;;;;;;12.52;10.88;;;18.00;81.70;;;;;;5071278;28;20040;-12
2022/09/04 02:28:32;;;;;;;12.35;11.05;;;18.00;81.60;;;;;;5071063;28;20029;-13
2022/09/04 02:31:29;;;;;;;13.60;11.15;;;18.10;81.60;;;;;;5011972;28;20061;-12
2022/09/04 02:34:05;;;;;;;11.65;10.43;;;18.10;81.60;;;;;;5011539;28;20038;-11
2022/09/04 02:36:45;;;;;;;13.00;11.05;;;18.10;81.50;;;;;;5011549;28;20062;-12
2022/09/04 02:39:35;;;;;;;16.48;12.77;;;18.10;81.50;;;;;;5011269;28;20021;-11
2022/09/04 02:42:10;;;;;;;17.77;15.88;;;18.10;81.60;;;;;;5011436;28;20489;-12
2022/09/04 02:45:07;;;;;;;17.20;13.32;;;18.00;81.80;;;;;;5011404;28;20116;-12
2022/09/04 02:47:54;;;;;;;17.42;13.80;;;18.00;81.70;;;;;;5011824;28;20030;-13
2022/09/04 02:50:28;;;;;;;18.00;14.75;;;18.00;81.80;;;;;;5025692;28;20117;-12
2022/09/04 02:52:54;;;;;;;14.23;12.02;;;18.00;81.80;;;;;;5030841;28;20502;-12
2022/09/04 02:55:48;;;;;;;19.70;14.10;;;18.00;81.80;;;;;;5034041;28;20031;-11
2022/09/04 02:59:06;;;;;;;23.00;17.80;;;18.10;81.90;;;;;;5035469;28;20416;-12
2022/09/04 03:01:37;;;;;;;20.45;17.50;;;18.10;82.00;;;;;;5035037;28;20041;-11
2022/09/04 03:04:21;;;;;;;12.73;10.35;;;18.10;82.70;;;;;;5035549;28;20040;-12
2022/09/04 03:06:55;;;;;;;11.70;10.10;;;18.00;82.10;;;;;;5060637;28;20071;-13
2022/09/04 03:09:49;;;;;;;14.50;12.23;;;18.00;82.20;;;;;;5076924;28;20028;-12
2022/09/04 03:12:43;;;;;;;21.30;16.43;;;18.10;82.40;;;;;;5076803;28;20020;-12
2022/09/04 03:15:28;;;;;;;12.48;10.15;;;18.10;82.30;;;;;;5076930;28;20025;-12
2022/09/04 03:18:13;;;;;;;16.48;11.63;;;18.20;82.20;;;;;;5077517;28;20028;-13
2022/09/04 03:20:46;;;;;;;18.52;14.73;;;18.20;82.20;;;;;;5077038;28;20100;-12
2022/09/04 03:23:37;;;;;;;12.18;10.13;;;18.20;82.30;;;;;;5076963;28;20044;-12
2022/09/04 03:26:08;;;;;;;18.23;15.18;;;18.20;82.20;;;;;;5076880;28;20489;-12
2022/09/04 03:29:11;;;;;;;14.77;12.32;;;18.30;82.10;;;;;;5076816;28;20052;-12
2022/09/04 03:31:42;;;;;;;15.63;12.25;;;18.30;82.40;;;;;;5076458;28;20040;-11
2022/09/04 03:34:19;;;;;;;16.02;11.80;;;18.40;82.70;;;;;;5077501;28;20070;-12
2022/09/04 03:36:58;;;;;;;12.57;10.57;;;18.40;82.30;;;;;;5076719;28;20032;-12
2022/09/04 03:39:49;;;;;;;12.20;9.40;;;18.40;82.30;;;;;;5076278;28;20126;-12
2022/09/04 03:43:02;;;;;;;10.73;9.63;;;18.40;82.30;;;;;;5076163;28;20021;-12
2022/09/04 03:45:46;;;;;;;12.82;10.75;;;18.40;82.20;;;;;;5074321;28;20028;-12
2022/09/04 03:48:29;;;;;;;13.20;11.45;;;18.50;82.10;;;;;;5058055;28;20028;-12
2022/09/04 03:51:01;;;;;;;;;;;18.50;81.90;;;;;;5074495;28;20104;-12
2022/09/04 03:53:29;;;;;;;21.90;17.70;;;18.50;82.30;;;;;;5073961;28;20308;-11
2022/09/04 03:56:28;;;;;;;18.52;16.25;;;18.60;82.10;;;;;;5073853;28;20036;-12
2022/09/04 03:59:03;;;;;;;13.95;11.40;;;18.60;82.00;;;;;;5073619;28;20052;-12
2022/09/04 04:01:58;;;;;;;12.75;11.43;;;18.60;82.20;;;;;;5073910;28;20032;-12
2022/09/04 04:05:05;;;;;;;12.52;11.07;;;18.60;82.00;;;;;;5073443;28;20115;-12
2022/09/04 04:07:37;;;;;;;11.68;10.43;;;18.60;82.20;;;;;;5073860;28;20117;-11
2022/09/04 04:10:29;;;;;;;13.73;11.55;;;18.60;82.00;;;;;;5073791;28;20033;-12
2022/09/04 04:13:10;;;;;;;13.90;11.82;;;18.60;82.40;;;;;;5073525;28;20123;-12
2022/09/04 04:15:51;;;;;;;15.27;12.48;;;18.70;82.20;;;;;;5074289;28;20037;-12
2022/09/04 04:18:37;;;;;;;11.73;9.80;;;18.70;82.60;;;;;;5075971;28;20060;-12
2022/09/04 04:21:54;;;;;;;13.93;11.18;;;18.70;82.60;;;;;;5075702;28;20103;-12
2022/09/04 04:24:46;;;;;;;13.73;11.07;;;18.70;82.70;;;;;;5075477;28;20185;-12
2022/09/04 04:27:32;;;;;;;13.05;11.05;;;18.70;82.50;;;;;;5075506;28;20031;-13
2022/09/04 04:30:16;;;;;;;18.63;15.10;;;18.70;82.60;;;;;;5075427;28;20380;-12
2022/09/04 04:32:42;;;;;;;15.10;12.00;;;18.80;82.40;;;;;;5075335;28;20029;-12
2022/09/04 04:35:26;;;;;;;14.82;11.85;;;18.80;82.60;;;;;;5075444;28;20017;-12
2022/09/04 04:38:04;;;;;;;17.98;15.32;;;18.80;82.60;;;;;;5074116;28;20028;-12
2022/09/04 04:40:54;;;;;;;16.17;13.07;;;18.80;83.80;;;;;;5075381;28;20108;-12
2022/09/04 04:43:40;;;;;;;14.57;12.95;;;18.80;83.80;;;;;;5076194;28;20051;-12
2022/09/04 04:46:32;;;;;;;14.57;12.80;;;18.80;84.10;;;;;;5076015;28;20035;-12
2022/09/04 04:49:18;;;;;;;13.75;11.63;;;18.80;83.40;;;;;;5073898;28;20020;-12
2022/09/04 04:52:04;;;;;;;14.63;11.85;;;18.80;83.10;;;;;;5075003;28;20037;-12
2022/09/04 04:54:41;;;;;;;13.07;10.73;;;18.90;82.70;;;;;;5075176;28;20082;-12
2022/09/04 04:57:19;;;;;;;13.60;11.20;;;18.90;82.50;;;;;;5074638;28;20036;-11
2022/09/04 04:59:54;;;;;;;12.25;10.65;;;18.90;82.50;;;;;;5074644;28;20080;-12
2022/09/04 05:02:38;;;;;;;13.23;10.73;;;18.90;82.50;;;;;;5074731;28;20024;-11
2022/09/04 05:05:12;;;;;;;;;;;18.90;82.40;;;;;;5073763;28;20515;-13
2022/09/04 05:08:05;;;;;;;14.45;11.45;;;18.90;82.20;;;;;;5074708;28;20368;-12
2022/09/04 05:10:40;;;;;;;12.77;11.37;;;19.00;82.10;;;;;;5075059;28;20028;-13
2022/09/04 05:13:30;;;;;;;16.27;12.20;;;19.00;82.20;;;;;;5074371;28;20054;-12
2022/09/04 05:16:29;;;;;;;15.88;13.10;;;19.00;82.20;;;;;;5074579;28;20361;-12
2022/09/04 05:19:00;;;;;;;20.30;15.27;;;19.10;82.00;;;;;;5074259;28;20021;-13
2022/09/04 05:22:00;;;;;;;14.80;12.18;;;19.10;81.80;;;;;;5074423;28;20024;-12
2022/09/04 05:24:35;;;;;;;19.00;14.35;;;19.10;81.90;;;;;;5074230;28;20046;-21
2022/09/04 05:27:38;;;;;;;16.48;12.27;;;19.20;81.90;;;;;;5074114;28;20017;-11
2022/09/04 05:30:27;;;;;;;20.42;14.98;;;19.20;81.90;;;;;;5074341;28;20104;-11
2022/09/04 05:32:58;;;;;;;12.85;11.05;;;19.20;82.00;;;;;;5074054;28;20028;-12
2022/09/04 05:35:23;;;;;;;14.40;12.82;;;19.30;81.90;;;;;;5074156;28;20039;-12
2022/09/04 05:38:14;;;;;;;12.95;11.18;;;19.30;81.80;;;;;;5074342;28;20056;-13
2022/09/04 05:41:08;;;;;;;13.10;10.13;;;19.40;81.70;;;;;;5074271;28;20047;-12
2022/09/04 05:43:46;;;;;;;13.00;10.73;;;19.40;81.70;;;;;;5073946;28;20025;-11
2022/09/04 05:46:11;;;;;;;12.50;9.75;;;19.50;81.70;;;;;;5073849;28;20031;-12
2022/09/04 05:48:53;;;;;;;12.65;11.32;;;19.60;81.30;;;;;;5073832;28;20040;-11
2022/09/04 05:51:56;;;;;;;19.63;11.88;;;19.70;81.30;;;;;;5073845;28;20051;-12
2022/09/04 05:54:48;;;;;;;16.52;13.30;;;19.90;81.20;;;;;;5073811;28;20017;-12
2022/09/04 05:57:33;;;;;;;16.23;14.00;;;19.90;80.90;;;;;;5074328;28;20115;-12
2022/09/04 06:00:06;;;;;;;25.98;20.02;;;20.00;80.60;;;;;;5073420;28;20535;-12
2022/09/04 06:02:50;;;;;;;21.42;17.35;;;20.20;80.20;;;;;;5073868;28;20032;-12
2022/09/04 06:05:59;;;;;;;18.50;15.52;;;20.20;80.00;;;;;;5073651;28;20502;-12
2022/09/04 06:08:51;;;;;;;18.08;14.68;;;20.40;79.80;;;;;;5073795;28;20067;-13
2022/09/04 06:11:54;;;;;;;16.75;14.10;;;20.60;79.30;;;;;;5073319;28;20036;-13
2022/09/04 06:14:47;;;;;;;15.85;11.55;;;20.90;79.40;;;;;;5073664;28;20052;-12
2022/09/04 06:17:13;;;;;;;14.30;12.27;;;21.10;78.90;;;;;;5073488;28;20481;-12
2022/09/04 06:19:50;;;;;;;15.40;12.93;;;21.20;78.50;;;;;;5073350;28;20354;-12
2022/09/04 06:22:36;;;;;;;12.05;10.48;;;21.40;78.80;;;;;;5073957;28;20099;-12
2022/09/04 06:25:32;;;;;;;13.20;10.57;;;21.60;78.50;;;;;;5073163;28;20036;-12
2022/09/04 06:28:07;;;;;;;12.25;9.95;;;21.80;76.70;;;;;;5073459;28;20020;-12
2022/09/04 06:31:04;;;;;;;19.55;11.32;;;22.00;76.80;;;;;;5073577;28;20357;-11
2022/09/04 06:33:39;;;;;;;12.65;9.50;;;22.10;74.40;;;;;;5072112;28;20021;-11
2022/09/04 06:36:25;;;;;;;14.25;10.85;;;22.10;75.50;;;;;;5073475;28;20025;-11
2022/09/04 06:39:07;;;;;;;13.15;10.60;;;22.20;75.10;;;;;;5073041;28;20024;-12
2022/09/04 06:41:40;;;;;;;11.10;8.77;;;22.40;74.60;;;;;;5073069;28;20465;-11
2022/09/04 06:44:44;;;;;;;13.73;11.65;;;22.40;74.30;;;;;;5073048;28;20041;-12
2022/09/04 06:47:21;;;;;;;11.48;8.95;;;22.60;72.70;;;;;;5072919;28;20535;-12
2022/09/04 06:50:17;;;;;;;13.32;11.93;;;22.70;73.70;;;;;;5073100;28;20050;-11
2022/09/04 06:52:52;;;;;;;11.15;9.93;;;22.90;72.60;;;;;;5073361;28;20145;-11
2022/09/04 06:55:38;;;;;;;11.10;9.80;;;23.00;72.50;;;;;;5072931;28;20036;-8
2022/09/04 06:58:41;;;;;;;11.10;9.23;;;23.20;71.30;;;;;;5073286;28;20029;-9
2022/09/04 07:01:21;;;;;;;13.40;9.52;;;23.30;71.10;;;;;;5071754;28;20057;-9
2022/09/04 07:04:13;;;;;;;8.18;7.10;;;23.50;70.20;;;;;;5073182;28;20044;-12
2022/09/04 07:07:00;;;;;;;13.13;8.95;;;23.70;70.20;;;;;;5072907;28;20033;-12
2022/09/04 07:09:45;;;;;;;10.38;8.00;;;23.70;67.90;;;;;;5072830;28;20086;-11
2022/09/04 07:12:39;;;;;;;9.02;6.65;;;23.90;67.00;;;;;;5072999;28;20024;-12
2022/09/04 07:15:38;;;;;;;9.20;7.55;;;23.90;66.50;;;;;;5072904;28;20079;-11
2022/09/04 07:18:05;;;;;;;8.32;6.20;;;24.10;66.30;;;;;;5072953;28;20103;-12
2022/09/04 07:21:14;;;;;;;7.15;5.78;;;24.30;67.40;;;;;;5073825;28;20039;-11
2022/09/04 07:23:46;;;;;;;6.45;5.75;;;24.50;65.70;;;;;;5072658;28;20496;-12
2022/09/04 07:26:26;;;;;;;8.85;5.57;;;24.60;65.80;;;;;;5072852;28;20039;-12
2022/09/04 07:29:29;;;;;;;10.65;6.03;;;24.80;65.90;;;;;;5072438;28;20034;-11
2022/09/04 07:32:08;;;;;;;8.70;6.25;;;25.00;64.30;;;;;;5073315;28;20025;-9
2022/09/04 07:35:01;;;;;;;6.80;5.50;;;24.90;65.60;;;;;;5072931;28;20107;-9
2022/09/04 07:37:42;;;;;;;7.38;5.28;;;24.90;63.80;;;;;;5072637;28;20044;-9
2022/09/04 07:40:11;;;;;;;5.72;4.70;;;25.10;63.30;;;;;;5073856;28;20020;-9
2022/09/04 07:42:53;;;;;;;6.80;5.60;;;25.20;63.80;;;;;;5076084;28;20496;-10
2022/09/04 07:45:32;;;;;;;11.35;5.75;;;25.40;62.40;;;;;;5076216;28;20024;-9
2022/09/04 07:48:10;;;;;;;5.35;4.38;;;25.50;64.00;;;;;;5076811;28;20031;-9
2022/09/04 07:50:50;;;;;;;7.07;4.47;;;25.60;62.80;;;;;;5076390;28;20029;-8
2022/09/04 07:53:44;;;;;;;5.57;4.32;;;25.70;62.70;;;;;;5076641;28;20112;-9
2022/09/04 07:56:15;;;;;;;5.70;5.10;;;25.90;62.20;;;;;;5076254;28;20033;-9
2022/09/04 07:59:00;;;;;;;4.40;4.00;;;26.20;61.60;;;;;;5075967;28;20025;-9
2022/09/04 08:01:34;;;;;;;4.90;3.63;;;26.40;61.10;;;;;;5076280;28;20040;-9
2022/09/04 08:04:03;;;;;;;4.60;4.10;;;26.60;60.60;;;;;;5075774;28;20361;-9
2022/09/04 08:06:37;;;;;;;5.13;3.72;;;26.90;59.30;;;;;;5075832;28;20124;-9
2022/09/04 08:09:16;;;;;;;5.00;3.72;;;27.20;57.50;;;;;;5075606;28;20060;-9
2022/09/04 08:12:07;;;;;;;4.25;3.70;;;27.30;56.40;;;;;;5075704;28;20119;-9
2022/09/04 08:14:38;;;;;;;5.20;3.53;;;27.50;56.60;;;;;;5076005;28;20024;-9
2022/09/04 08:17:45;;;;;;;3.63;3.17;;;27.80;55.90;;;;;;5075440;28;20058;-9
2022/09/04 08:20:39;;;;;;;3.63;3.08;;;28.20;55.60;;;;;;5074393;28;20463;-10
2022/09/04 08:23:05;;;;;;;5.53;3.70;;;28.50;53.60;;;;;;5075643;28;20028;-9
2022/09/04 08:25:31;;;;;;;4.63;3.15;;;28.70;54.00;;;;;;5075842;28;20115;-9
2022/09/04 08:28:16;;;;;;;2.80;2.60;;;28.80;54.00;;;;;;5075402;28;20617;-9
2022/09/04 08:31:17;;;;;;;4.10;2.58;;;28.80;51.00;;;;;;5075399;28;20119;-8
2022/09/04 08:33:52;;;;;;;2.90;2.45;;;28.60;52.10;;;;;;5074390;28;20021;-10
2022/09/04 08:36:37;;;;;;;5.20;2.75;;;28.70;52.60;;;;;;5075266;28;20033;-9
2022/09/04 08:39:03;;;;;;;3.72;2.70;;;28.90;52.00;;;;;;5075426;28;20157;-9
2022/09/04 08:41:47;;;;;;;5.57;3.13;;;29.10;52.50;;;;;;5075130;28;20492;-10
2022/09/04 08:44:25;;;;;;;4.13;3.10;;;29.30;50.60;;;;;;5075053;28;20035;-9
2022/09/04 08:47:25;;;;;;;3.75;2.65;;;29.40;50.70;;;;;;5075387;28;20025;-9
2022/09/04 08:50:11;;;;;;;4.55;2.70;;;29.50;50.80;;;;;;5074867;28;20488;-9
2022/09/04 08:52:59;;;;;;;4.57;2.90;;;29.90;51.00;;;;;;5073999;28;20029;-9
2022/09/04 08:55:34;;;;;;;3.83;2.80;;;30.10;50.10;;;;;;5075012;28;20028;-9
2022/09/04 08:58:21;;;;;;;3.97;2.70;;;30.20;49.70;;;;;;5075028;28;20185;-9
2022/09/04 09:00:48;;;;;;;4.15;3.00;;;30.30;49.80;;;;;;5074476;28;20091;-10
2022/09/04 09:03:29;;;;;;;3.17;2.88;;;30.30;49.20;;;;;;5074981;28;20045;-9
2022/09/04 09:06:10;;;;;;;3.45;3.10;;;30.00;47.50;;;;;;5075118;28;20075;-9
2022/09/04 09:09:07;;;;;;;3.67;3.15;;;29.90;48.90;;;;;;5074682;28;20511;-12
2022/09/04 09:11:40;;;;;;;5.38;2.83;;;30.20;48.80;;;;;;5074808;28;20064;-12
2022/09/04 09:14:27;;;;;;;4.38;2.80;;;30.40;48.40;;;;;;5074954;28;20082;-12
2022/09/04 09:17:13;;;;;;;2.78;2.47;;;30.60;48.30;;;;;;5074389;28;20046;-12
2022/09/04 09:19:41;;;;;;;3.47;2.20;;;30.80;48.40;;;;;;5074540;28;20435;-12
2022/09/04 09:22:13;;;;;;;3.22;2.70;;;31.10;47.90;;;;;;5074423;28;20024;-12
2022/09/04 09:25:00;;;;;;;3.80;3.20;;;31.40;47.70;;;;;;5074414;28;20029;-11
2022/09/04 09:28:05;;;;;;;3.47;2.97;;;31.50;44.40;;;;;;5074120;28;20070;-12
2022/09/04 09:30:43;;;;;;;3.67;2.42;;;31.50;44.90;;;;;;5073036;28;20040;-11
2022/09/04 09:33:28;;;;;;;4.35;2.50;;;31.70;46.40;;;;;;5074319;28;20115;-11
2022/09/04 09:36:14;;;;;;;3.30;3.00;;;32.00;46.30;;;;;;5074187;28;20036;-11
2022/09/04 09:39:16;;;;;;;5.18;2.80;;;32.40;44.80;;;;;;5074215;28;20056;-11
2022/09/04 09:42:05;;;;;;;4.35;2.92;;;32.50;44.30;;;;;;5071744;28;20064;-11
2022/09/04 09:44:51;;;;;;;3.20;2.90;;;32.70;43.90;;;;;;5061964;28;20157;-11
2022/09/04 09:47:56;;;;;;;2.97;2.70;;;32.60;43.90;;;;;;5074245;28;20025;-11
2022/09/04 09:50:57;;;;;;;3.58;2.60;;;32.60;42.70;;;;;;5073862;28;20016;-11
2022/09/04 09:54:01;;;;;;;2.45;2.25;;;32.90;43.60;;;;;;5074280;28;20478;-11
2022/09/04 09:57:03;;;;;;;4.43;3.00;;;33.10;44.20;;;;;;5071467;28;20044;-11
2022/09/04 09:59:35;;;;;;;3.75;2.50;;;33.30;42.30;;;;;;5071290;28;20408;-11
2022/09/04 10:02:50;;;;;;;3.47;2.83;;;33.50;41.70;;;;;;5067436;28;20134;-11
2022/09/04 10:05:21;;;;;;;3.97;2.70;;;33.80;41.40;;;;;;5072104;28;20111;-11
2022/09/04 10:07:59;;;;;;;4.03;2.67;;;34.00;41.30;;;;;;5073327;28;20021;-11
2022/09/04 10:10:52;;;;;;;3.58;2.92;;;34.20;41.30;;;;;;5073632;28;20025;-11
2022/09/04 10:13:40;;;;;;;2.95;2.63;;;34.20;41.10;;;;;;5073800;28;20532;-12
2022/09/04 10:16:35;;;;;;;4.18;2.72;;;33.90;42.00;;;;;;5074041;28;20020;-11
2022/09/04 10:19:28;;;;;;;4.35;3.20;;;33.70;42.20;;;;;;5072494;28;20472;-11
2022/09/04 10:22:00;;;;;;;4.40;2.63;;;33.90;41.00;;;;;;5073715;28;20021;-11
2022/09/04 10:24:41;;;;;;;4.22;2.67;;;34.00;41.60;;;;;;5073291;28;20048;-12
2022/09/04 10:27:34;;;;;;;2.95;2.75;;;34.30;41.20;;;;;;5073350;28;20051;-11
2022/09/04 10:30:09;;;;;;;4.05;2.65;;;34.70;40.80;;;;;;5073303;28;20035;-11
2022/09/04 10:32:53;;;;;;;2.90;2.38;;;35.00;39.40;;;;;;5073321;28;20020;-12
2022/09/04 10:35:33;;;;;;;2.40;2.20;;;35.10;39.00;;;;;;5073591;28;20091;-11
2022/09/04 10:38:36;;;;;;;3.83;2.92;;;35.30;39.40;;;;;;5073387;28;20033;-11
2022/09/04 10:41:17;;;;;;;3.58;2.80;;;35.00;37.60;;;;;;5072805;28;20025;-12
2022/09/04 10:44:11;;;;;;;4.65;2.85;;;34.80;38.80;;;;;;5072928;28;20041;-12
2022/09/04 10:46:54;;;;;;;3.55;2.50;;;34.30;40.10;;;;;;5073264;28;20532;-12
2022/09/04 10:49:20;;;;;;;3.22;2.50;;;34.00;41.30;;;;;;5073774;28;20040;-11
2022/09/04 10:52:05;;;;;;;3.75;2.85;;;34.00;41.40;;;;;;5071727;28;20071;-12
2022/09/04 10:54:43;;;;;;;6.55;3.20;;;34.20;39.70;;;;;;5073422;28;20024;-11
2022/09/04 10:57:47;;;;;;;4.80;3.20;;;34.30;40.50;;;;;;5072773;28;20025;-11
2022/09/04 11:00:17;;;;;;;4.10;2.90;;;34.30;40.30;;;;;;5072666;28;20087;-11
2022/09/04 11:03:04;;;;;;;4.65;3.08;;;34.30;40.80;;;;;;5072893;28;20480;-11
2022/09/04 11:05:48;;;;;;;3.03;2.67;;;34.30;40.10;;;;;;5073207;28;20029;-11
2022/09/04 11:08:37;;;;;;;3.10;2.80;;;33.60;41.10;;;;;;5073193;28;20031;-12
2022/09/04 11:11:22;;;;;;;3.50;2.72;;;33.50;41.90;;;;;;5072877;28;20040;-12
2022/09/04 11:14:14;;;;;;;4.25;2.22;;;33.70;42.30;;;;;;5072816;28;20493;-12
2022/09/04 11:17:16;;;;;;;3.53;2.90;;;34.30;41.40;;;;;;5076431;28;20032;-12
2022/09/04 11:20:18;;;;;;;3.58;2.88;;;34.90;40.20;;;;;;5076881;28;20031;-12
2022/09/04 11:23:35;;;;;;;2.75;2.55;;;35.40;39.40;;;;;;5076788;28;20032;-11
2022/09/04 11:26:19;;;;;;;5.13;2.65;;;35.70;39.30;;;;;;5074905;28;20087;-11
2022/09/04 11:29:24;;;;;;;2.63;2.38;;;35.90;37.30;;;;;;5074385;28;20559;-11
2022/09/04 11:32:10;;;;;;;4.72;2.65;;;35.90;38.50;;;;;;5074189;28;20060;-11
2022/09/04 11:34:55;;;;;;;4.50;2.60;;;36.00;38.30;;;;;;5074677;28;20029;-11
2022/09/04 11:37:37;;;;;;;3.35;2.40;;;36.30;36.50;;;;;;5074341;28;20112;-12
2022/09/04 11:40:25;;;;;;;3.10;2.50;;;36.70;37.60;;;;;;5074382;28;20024;-11
2022/09/04 11:43:21;;;;;;;4.28;2.72;;;37.40;36.70;;;;;;5074043;28;20040;-12
2022/09/04 11:46:30;;;;;;;2.50;2.30;;;37.70;34.30;;;;;;5074233;28;20028;-11
2022/09/04 11:49:18;;;;;;;2.97;2.72;;;37.50;35.60;;;;;;5036998;28;20086;-11
2022/09/04 11:51:59;;;;;;;5.90;2.80;;;37.80;34.70;;;;;;5074044;28;20036;-12
2022/09/04 11:54:43;;;;;;;5.10;2.78;;;38.00;34.30;;;;;;5074112;28;20032;-11
2022/09/04 11:57:23;;;;;;;2.80;2.60;;;38.20;35.00;;;;;;5073736;28;20033;-10
2022/09/04 12:00:07;;;;;;;3.53;2.80;;;38.40;34.90;;;;;;5073701;28;20052;-12
2022/09/04 12:02:54;;;;;;;4.03;2.60;;;38.70;34.30;;;;;;5058667;28;20432;-11
2022/09/04 12:05:41;;;;;;;4.88;2.80;;;38.70;34.30;;;;;;5056416;28;20025;-11
2022/09/04 12:08:25;;;;;;;3.20;2.50;;;39.00;33.80;;;;;;5055947;28;20392;-11
2022/09/04 12:11:20;;;;;;;2.45;2.25;;;39.50;33.10;;;;;;5055533;28;20488;-11
2022/09/04 12:14:31;;;;;;;3.08;2.30;;;39.70;31.70;;;;;;5056136;28;20033;-12
2022/09/04 12:17:16;;;;;;;4.65;2.40;;;39.70;33.00;;;;;;5055510;28;20029;-11
2022/09/04 12:19:54;;;;;;;4.57;2.50;;;39.90;32.40;;;;;;5055920;28;20040;-12
2022/09/04 12:22:53;;;;;;;4.25;2.72;;;40.20;30.70;;;;;;5055624;28;20033;-11
2022/09/04 12:25:52;;;;;;;2.95;2.30;;;40.40;30.80;;;;;;5055967;28;20033;-11
2022/09/04 12:28:45;;;;;;;5.25;2.90;;;40.60;31.20;;;;;;5055689;28;20028;-12
2022/09/04 12:31:38;;;;;;;2.50;2.30;;;40.50;30.80;;;;;;5056027;28;20028;-12
2022/09/04 12:34:33;;;;;;;4.47;2.60;;;40.20;31.20;;;;;;5056268;28;20041;-11
2022/09/04 12:37:27;;;;;;;3.75;2.75;;;40.20;31.10;;;;;;5055143;28;20029;-11
2022/09/04 12:39:59;;;;;;;2.45;2.28;;;40.20;31.10;;;;;;5055657;28;20025;-11
2022/09/04 12:42:57;;;;;;;5.55;2.60;;;40.20;31.80;;;;;;5055450;28;20032;-11
2022/09/04 12:45:26;;;;;;;4.22;2.80;;;40.20;32.00;;;;;;5055507;28;20086;-11
2022/09/04 12:47:57;;;;;;;4.07;2.65;;;40.10;31.90;;;;;;5055623;28;20017;-11
2022/09/04 12:50:46;;;;;;;2.65;2.45;;;39.90;31.40;;;;;;5055415;28;20060;-11
2022/09/04 12:53:30;;;;;;;2.83;2.50;;;39.20;32.30;;;;;;5054908;28;20067;-11
2022/09/04 12:56:05;;;;;;;2.97;2.17;;;38.70;33.30;;;;;;5055016;28;20032;-11
2022/09/04 12:58:46;;;;;;;4.15;2.53;;;38.90;33.20;;;;;;5055203;28;20116;-12
2022/09/04 13:01:40;;;;;;;2.67;2.47;;;39.00;32.90;;;;;;5073611;28;20516;-11
2022/09/04 13:04:34;;;;;;;2.38;2.20;;;39.30;31.80;;;;;;5074806;28;20033;-11
2022/09/04 13:07:08;;;;;;;3.67;2.70;;;39.60;32.80;;;;;;5074639;28;20032;-12
2022/09/04 13:09:49;;;;;;;2.45;2.25;;;39.90;31.70;;;;;;5074537;28;20028;-10
2022/09/04 13:12:28;;;;;;;3.35;2.60;;;39.90;31.50;;;;;;5074515;28;20017;-11
2022/09/04 13:15:29;;;;;;;2.67;2.47;;;40.30;30.60;;;;;;5073265;28;20047;-12
2022/09/04 13:18:07;;;;;;;2.72;2.25;;;40.50;30.30;;;;;;5073649;28;20488;-11
2022/09/04 13:20:47;;;;;;;4.45;2.35;;;40.70;30.40;;;;;;5074893;28;20068;-11
2022/09/04 13:23:26;;;;;;;5.20;2.65;;;40.70;30.00;;;;;;5074661;28;20081;-11
2022/09/04 13:26:00;;;;;;;2.40;2.25;;;40.90;29.60;;;;;;5074412;28;20081;-11
2022/09/04 13:28:36;;;;;;;4.00;2.50;;;40.90;29.50;;;;;;5074271;28;20035;-12
2022/09/04 13:31:22;;;;;;;2.75;2.50;;;40.90;29.10;;;;;;5074332;28;20112;-12
2022/09/04 13:34:19;;;;;;;3.20;2.53;;;40.60;29.80;;;;;;5073610;28;20166;-12
2022/09/04 13:37:02;;;;;;;3.60;2.25;;;40.50;29.40;;;;;;5074457;28;20099;-12
2022/09/04 13:39:31;;;;;;;3.90;2.60;;;40.40;29.50;;;;;;5073634;28;20046;-11
2022/09/04 13:42:09;;;;;;;4.60;2.70;;;40.20;30.30;;;;;;5073943;28;20036;-12
2022/09/04 13:44:50;;;;;;;4.55;2.92;;;39.60;30.40;;;;;;5074228;28;20056;-12
2022/09/04 13:47:29;;;;;;;4.07;2.83;;;38.90;31.30;;;;;;5074315;28;20070;-11
2022/09/04 13:50:01;;;;;;;2.80;2.53;;;38.20;32.00;;;;;;5074269;28;20020;-12
2022/09/04 13:52:50;;;;;;;2.47;2.28;;;37.70;32.80;;;;;;5074138;28;20483;-11
2022/09/04 13:55:48;;;;;;;3.25;2.50;;;37.50;33.30;;;;;;5073873;28;20500;-12
2022/09/04 13:58:18;;;;;;;2.90;2.50;;;37.00;33.80;;;;;;5073485;28;20059;-12
2022/09/04 14:00:56;;;;;;;4.63;2.53;;;36.60;34.80;;;;;;5073522;28;20053;-12
2022/09/04 14:03:36;;;;;;;3.53;2.40;;;36.40;34.90;;;;;;5073868;28;20082;-9
2022/09/04 14:06:09;;;;;;;2.50;2.30;;;36.20;34.90;;;;;;5073591;28;20431;-9
2022/09/04 14:08:38;;;;;;;2.92;2.63;;;36.30;34.90;;;;;;5073603;28;20480;-12
2022/09/04 14:11:07;;;;;;;3.30;2.63;;;36.40;34.50;;;;;;5073307;28;20455;-13